Time;durP1;ratioP1;P1;durP2;ratioP2;P2;SDS_P1;SDS_P2;PMS_P1;PMS_P2;Temp;Humidity;BMP_temperature;BMP_pressure;BME280_temperature;BME280_humidity;BME280_pressure;Samples;Min_cycle;Max_cycle;Signal;HPM_P1;HPM_P2
2022/06/19 00:01:14;;;;;;;11.45;3.35;;;;;;;;;;5059309;28;20243;-79
2022/06/19 00:03:46;;;;;;;7.80;3.08;;;;;;;;;;5074376;28;20229;-80
2022/06/19 00:06:14;;;;;;;9.77;3.13;;;;;;;;;;5074888;28;20239;-77
2022/06/19 00:08:42;;;;;;;10.70;3.35;;;;;;;;;;5060824;28;20217;-80
2022/06/19 00:11:14;;;;;;;8.75;3.00;;;;;;;;;;5058740;28;20727;-81
2022/06/19 00:13:41;;;;;;;9.13;2.97;;;;;;;;;;5076569;28;20802;-78
2022/06/19 00:16:09;;;;;;;12.75;3.28;;;;;;;;;;5075990;28;20284;-79
2022/06/19 00:18:38;;;;;;;7.63;2.97;;;;;;;;;;5057035;28;21882;-79
2022/06/19 00:21:07;;;;;;;13.70;2.85;;;;;;;;;;5071157;28;20288;-79
2022/06/19 00:23:34;;;;;;;7.43;2.65;;;;;;;;;;5078209;28;20308;-79
2022/06/19 00:26:02;;;;;;;10.32;3.13;;;;;;;;;;5080387;28;20289;-79
2022/06/19 00:28:29;;;;;;;12.15;3.33;;;;;;;;;;5083423;28;20239;-79
2022/06/19 00:30:56;;;;;;;7.45;2.78;;;;;;;;;;5073652;28;20193;-78
2022/06/19 00:33:24;;;;;;;15.20;3.20;;;;;;;;;;5079847;28;20314;-78
2022/06/19 00:35:51;;;;;;;7.38;3.00;;;;;;;;;;5072381;28;20219;-78
2022/06/19 00:38:18;;;;;;;10.48;3.25;;;;;;;;;;5082567;28;20624;-80
2022/06/19 00:40:46;;;;;;;6.30;3.05;;;;;;;;;;5076594;28;20327;-79
2022/06/19 00:43:13;;;;;;;8.63;3.17;;;;;;;;;;5055518;28;20316;-76
2022/06/19 00:45:50;;;;;;;14.13;3.83;;;;;;;;;;5072681;28;20347;-80
2022/06/19 00:48:20;;;;;;;8.02;3.03;;;;;;;;;;5058410;28;20208;-78
2022/06/19 00:50:49;;;;;;;8.50;3.17;;;;;;;;;;5056112;28;20205;-78
2022/06/19 00:53:21;;;;;;;9.00;2.97;;;;;;;;;;5051236;28;20308;-79
2022/06/19 00:55:50;;;;;;;8.15;3.40;;;;;;;;;;5054291;28;20205;-79
2022/06/19 00:58:29;;;;;;;7.40;2.88;;;;;;;;;;5078176;28;20239;-78
2022/06/19 01:00:59;;;;;;;9.48;3.42;;;;;;;;;;5071245;28;20744;-79
2022/06/19 01:03:30;;;;;;;10.00;2.97;;;;;;;;;;5071320;28;20221;-76
2022/06/19 01:05:58;;;;;;;9.52;3.20;;;;;;;;;;5051207;28;20282;-78
2022/06/19 01:08:25;;;;;;;10.18;3.17;;;;;;;;;;5069936;28;20267;-77
2022/06/19 01:10:54;;;;;;;9.18;3.08;;;;;;;;;;5070261;28;20733;-80
2022/06/19 01:13:23;;;;;;;6.07;3.05;;;;;;;;;;5065557;28;20338;-79
2022/06/19 01:15:51;;;;;;;6.60;2.95;;;;;;;;;;5067820;28;20347;-79
2022/06/19 01:18:19;;;;;;;5.75;2.85;;;;;;;;;;5053135;28;20288;-79
2022/06/19 01:20:47;;;;;;;9.63;3.28;;;;;;;;;;5063816;28;20331;-80
2022/06/19 01:23:22;;;;;;;10.00;3.38;;;;;;;;;;5066369;28;20712;-78
2022/06/19 01:25:50;;;;;;;9.07;2.83;;;;;;;;;;5071659;28;20295;-79
2022/06/19 01:31:12;;;;;;;8.77;2.95;;;;;;;;;;5067043;28;20205;-79
2022/06/19 01:33:42;;;;;;;5.85;3.00;;;;;;;;;;5060373;28;20690;-81
2022/06/19 01:36:12;;;;;;;8.60;2.92;;;;;;;;;;5068449;28;20207;-78
2022/06/19 01:38:40;;;;;;;10.88;3.40;;;;;;;;;;5061539;28;20287;-79
2022/06/19 01:41:14;;;;;;;6.55;3.10;;;;;;;;;;5077520;28;20196;-78
2022/06/19 01:43:42;;;;;;;9.75;3.53;;;;;;;;;;5069322;28;20232;-80
2022/06/19 01:46:09;;;;;;;7.65;3.22;;;;;;;;;;5077052;28;20202;-78
2022/06/19 01:48:38;;;;;;;9.20;3.28;;;;;;;;;;5067371;28;22551;-77
2022/06/19 01:51:06;;;;;;;6.93;2.97;;;;;;;;;;5070466;28;20282;-78
2022/06/19 01:53:49;;;;;;;10.00;3.70;;;;;;;;;;5051055;28;20315;-79
2022/06/19 01:56:16;;;;;;;13.73;3.60;;;;;;;;;;5078299;28;20307;-78
2022/06/19 01:58:45;;;;;;;7.35;3.10;;;;;;;;;;5070533;28;20313;-77
2022/06/19 02:01:12;;;;;;;12.32;3.10;;;;;;;;;;5067990;28;20282;-79
2022/06/19 02:04:00;;;;;;;10.07;3.08;;;;;;;;;;5051638;28;20315;-78
2022/06/19 02:06:30;;;;;;;7.57;3.10;;;;;;;;;;5074487;28;20212;-77
2022/06/19 02:08:59;;;;;;;10.10;3.80;;;;;;;;;;5074970;28;20280;-78
2022/06/19 02:11:26;;;;;;;11.32;3.90;;;;;;;;;;5075599;28;20284;-78
2022/06/19 02:13:57;;;;;;;19.83;3.80;;;;;;;;;;5076356;28;20315;-80
2022/06/19 02:16:25;;;;;;;10.43;3.90;;;;;;;;;;5071985;28;20297;-79
2022/06/19 02:18:53;;;;;;;9.60;3.28;;;;;;;;;;5072650;28;20212;-77
2022/06/19 02:21:41;;;;;;;6.68;3.05;;;;;;;;;;5073272;28;20748;-79
2022/06/19 02:24:10;;;;;;;12.13;3.55;;;;;;;;;;5073492;28;20201;-78
2022/06/19 02:26:38;;;;;;;7.93;3.30;;;;;;;;;;5074207;28;20281;-78
2022/06/19 02:29:09;;;;;;;11.60;3.40;;;;;;;;;;5067897;28;20219;-77
2022/06/19 02:31:40;;;;;;;11.40;3.63;;;;;;;;;;5054838;28;20213;-77
2022/06/19 02:34:17;;;;;;;8.85;3.65;;;;;;;;;;5069266;28;20221;-79
2022/06/19 02:36:46;;;;;;;13.63;3.63;;;;;;;;;;5071460;28;20558;-78
2022/06/19 02:39:16;;;;;;;10.90;2.90;;;;;;;;;;5070288;28;20320;-78
2022/06/19 02:41:52;;;;;;;8.07;3.00;;;;;;;;;;5075946;28;20328;-79
2022/06/19 02:44:19;;;;;;;9.48;3.33;;;;;;;;;;5059531;28;20295;-78
2022/06/19 02:46:47;;;;;;;7.90;3.30;;;;;;;;;;5062599;28;20295;-78
2022/06/19 02:49:14;;;;;;;7.30;3.22;;;;;;;;;;5076684;28;20236;-79
2022/06/19 02:51:46;;;;;;;10.05;3.85;;;;;;;;;;5074202;28;20232;-77
2022/06/19 02:54:13;;;;;;;7.03;3.08;;;;;;;;;;5078554;28;20308;-78
2022/06/19 02:56:40;;;;;;;7.30;3.28;;;;;;;;;;5075941;28;20646;-77
2022/06/19 02:59:07;;;;;;;10.95;3.10;;;;;;;;;;5072591;28;20240;-78
2022/06/19 03:01:36;;;;;;;8.85;3.15;;;;;;;;;;5077549;28;20240;-77
2022/06/19 03:04:03;;;;;;;8.15;3.17;;;;;;;;;;5069683;28;20649;-75
2022/06/19 03:06:30;;;;;;;9.75;3.10;;;;;;;;;;5073368;28;20205;-77
2022/06/19 03:08:57;;;;;;;9.38;3.53;;;;;;;;;;5068512;28;20292;-77
2022/06/19 03:11:27;;;;;;;12.25;3.38;;;;;;;;;;5070063;28;20224;-78
2022/06/19 03:13:54;;;;;;;9.63;3.80;;;;;;;;;;5051548;28;20271;-78
2022/06/19 03:16:22;;;;;;;11.95;3.88;;;;;;;;;;5052869;28;20205;-76
2022/06/19 03:18:50;;;;;;;8.32;3.30;;;;;;;;;;5067311;28;20300;-79
2022/06/19 03:21:17;;;;;;;8.82;3.70;;;;;;;;;;5069594;28;20732;-78
2022/06/19 03:23:44;;;;;;;7.82;3.33;;;;;;;;;;5073767;28;20293;-77
2022/06/19 03:26:12;;;;;;;9.65;3.72;;;;;;;;;;5078958;28;20215;-74
2022/06/19 03:28:39;;;;;;;11.57;3.60;;;;;;;;;;5076383;28;20236;-78
2022/06/19 03:31:06;;;;;;;10.68;3.92;;;;;;;;;;5056912;28;20296;-79
2022/06/19 03:33:34;;;;;;;8.25;3.40;;;;;;;;;;5071567;28;20285;-77
2022/06/19 03:36:02;;;;;;;8.23;3.30;;;;;;;;;;5068826;28;20308;-76
2022/06/19 03:38:29;;;;;;;12.20;3.78;;;;;;;;;;5069801;28;20229;-77
2022/06/19 03:40:56;;;;;;;6.97;3.40;;;;;;;;;;5058907;28;20288;-78
2022/06/19 03:43:23;;;;;;;9.50;3.30;;;;;;;;;;5073332;28;20221;-77
2022/06/19 03:45:51;;;;;;;9.18;3.95;;;;;;;;;;5065628;28;20296;-79
2022/06/19 03:48:18;;;;;;;7.95;2.97;;;;;;;;;;5072885;28;20208;-81
2022/06/19 03:50:46;;;;;;;7.45;2.92;;;;;;;;;;5078500;28;20280;-78
2022/06/19 03:53:13;;;;;;;7.80;3.20;;;;;;;;;;5071566;28;20269;-76
2022/06/19 03:55:41;;;;;;;10.65;3.63;;;;;;;;;;5078213;28;20278;-79
2022/06/19 03:58:08;;;;;;;11.95;3.47;;;;;;;;;;5077491;28;20391;-78
2022/06/19 04:00:36;;;;;;;7.55;3.55;;;;;;;;;;5073208;28;20247;-79
2022/06/19 04:03:03;;;;;;;12.60;3.67;;;;;;;;;;5075769;28;20256;-79
2022/06/19 04:05:31;;;;;;;8.88;4.05;;;;;;;;;;5077658;28;20220;-77
2022/06/19 04:07:59;;;;;;;10.18;3.70;;;;;;;;;;5068072;28;20292;-77
2022/06/19 04:10:28;;;;;;;11.23;3.63;;;;;;;;;;5069539;28;20912;-74
2022/06/19 04:12:55;;;;;;;9.43;3.00;;;;;;;;;;5074980;28;20317;-77
2022/06/19 04:15:22;;;;;;;9.63;3.55;;;;;;;;;;5049029;28;20293;-78
2022/06/19 04:17:50;;;;;;;11.20;3.45;;;;;;;;;;5067259;28;20749;-77
2022/06/19 04:20:17;;;;;;;7.05;3.40;;;;;;;;;;5067492;28;20204;-77
2022/06/19 04:22:44;;;;;;;11.63;3.80;;;;;;;;;;5069386;28;20799;-78
2022/06/19 04:25:14;;;;;;;11.95;3.70;;;;;;;;;;5071531;28;20227;-75
2022/06/19 04:27:43;;;;;;;8.45;3.40;;;;;;;;;;5047390;28;20213;-76
2022/06/19 04:30:20;;;;;;;12.40;3.83;;;;;;;;;;5069258;28;20295;-78
2022/06/19 04:32:49;;;;;;;7.47;3.20;;;;;;;;;;5068295;28;20352;-75
2022/06/19 04:35:17;;;;;;;9.32;3.17;;;;;;;;;;5064305;28;20309;-78
2022/06/19 04:37:47;;;;;;;9.63;3.72;;;;;;;;;;5068149;28;20661;-78
2022/06/19 04:40:14;;;;;;;7.90;3.35;;;;;;;;;;5054922;28;20322;-75
2022/06/19 04:42:41;;;;;;;8.75;3.55;;;;;;;;;;5077022;28;20959;-78
2022/06/19 04:45:09;;;;;;;7.20;3.35;;;;;;;;;;5079937;28;20298;-77
2022/06/19 04:47:37;;;;;;;9.52;3.17;;;;;;;;;;5066717;28;20434;-79
2022/06/19 04:50:04;;;;;;;12.23;4.05;;;;;;;;;;5072464;28;20723;-79
2022/06/19 04:52:31;;;;;;;10.15;4.35;;;;;;;;;;5075205;28;20794;-79
2022/06/19 04:54:59;;;;;;;9.40;3.53;;;;;;;;;;5074711;28;20319;-78
2022/06/19 04:57:26;;;;;;;11.80;3.83;;;;;;;;;;5069519;28;20322;-78
2022/06/19 05:00:00;;;;;;;9.48;3.25;;;;;;;;;;5046981;28;20269;-78
2022/06/19 05:02:27;;;;;;;13.07;3.67;;;;;;;;;;5051960;28;20220;-79
2022/06/19 05:04:54;;;;;;;12.52;3.55;;;;;;;;;;5076783;28;20201;-78
2022/06/19 05:07:21;;;;;;;10.23;3.30;;;;;;;;;;5052651;28;20221;-76
2022/06/19 05:09:49;;;;;;;6.03;3.22;;;;;;;;;;5076677;28;20304;-79
2022/06/19 05:12:16;;;;;;;10.73;3.53;;;;;;;;;;5068040;28;20311;-77
2022/06/19 05:14:44;;;;;;;9.38;3.13;;;;;;;;;;5064069;28;20229;-77
2022/06/19 05:17:11;;;;;;;7.90;3.50;;;;;;;;;;5066982;28;20658;-78
2022/06/19 05:19:42;;;;;;;13.23;4.13;;;;;;;;;;5073829;28;20268;-77
2022/06/19 05:22:09;;;;;;;10.45;3.63;;;;;;;;;;5070784;28;20307;-77
2022/06/19 05:24:36;;;;;;;13.68;4.10;;;;;;;;;;5073094;28;20296;-77
2022/06/19 05:27:09;;;;;;;8.75;3.95;;;;;;;;;;5053470;28;20328;-78
2022/06/19 05:29:37;;;;;;;13.82;3.33;;;;;;;;;;5069629;28;20266;-78
2022/06/19 05:32:05;;;;;;;10.73;3.47;;;;;;;;;;5064271;28;20425;-76
2022/06/19 05:34:33;;;;;;;9.40;3.45;;;;;;;;;;5067932;28;20236;-78
2022/06/19 05:37:00;;;;;;;;;;;;;;;;;;5070427;28;20681;-79
2022/06/19 05:39:27;;;;;;;15.55;3.45;;;;;;;;;;5074744;28;20180;-76
2022/06/19 05:41:57;;;;;;;10.63;3.40;;;;;;;;;;5073244;28;20228;-79
2022/06/19 05:44:25;;;;;;;9.85;3.50;;;;;;;;;;5067526;28;20205;-77
2022/06/19 05:46:56;;;;;;;10.80;3.28;;;;;;;;;;5063996;28;20213;-77
2022/06/19 05:49:23;;;;;;;9.45;3.63;;;;;;;;;;5054735;28;20205;-80
2022/06/19 05:51:50;;;;;;;;;;;;;;;;;;5069797;28;20139;-80
2022/06/19 05:54:17;;;;;;;;;;;;;;;;;;5072850;28;20008;-79
2022/06/19 05:56:44;;;;;;;;;;;;;;;;;;5073091;28;20365;-79
2022/06/19 05:59:11;;;;;;;;;;;;;;;;;;5078466;28;19971;-79
2022/06/19 06:01:39;;;;;;;;;;;;;;;;;;5072617;28;19924;-79
2022/06/19 06:04:06;;;;;;;;;;;;;;;;;;5071588;28;19968;-78
2022/06/19 06:06:33;;;;;;;;;;;;;;;;;;5074750;28;20534;-80
2022/06/19 06:09:00;;;;;;;;;;;;;;;;;;5076690;28;19966;-79
2022/06/19 06:11:27;;;;;;;14.75;4.03;;;;;;;;;;5072679;28;19960;-78
2022/06/19 06:13:55;;;;;;;10.20;3.70;;;;;;;;;;5073670;28;20233;-77
2022/06/19 06:16:22;;;;;;;9.90;3.58;;;;;;;;;;5075132;28;20752;-78
2022/06/19 06:18:50;;;;;;;8.88;3.40;;;;;;;;;;5072291;28;20217;-80
2022/06/19 06:21:19;;;;;;;8.60;3.10;;;;;;;;;;5075526;28;20201;-79
2022/06/19 06:23:46;;;;;;;16.67;4.07;;;;;;;;;;5077519;28;20316;-79
2022/06/19 06:26:15;;;;;;;10.88;3.90;;;;;;;;;;5076450;28;20740;-79
2022/06/19 06:28:44;;;;;;;13.60;4.10;;;;;;;;;;5079711;28;20205;-79
2022/06/19 06:31:11;;;;;;;11.30;3.70;;;;;;;;;;5080392;28;20201;-78
2022/06/19 06:33:39;;;;;;;10.90;3.92;;;;;;;;;;5079163;28;20231;-78
2022/06/19 06:36:07;;;;;;;12.75;4.18;;;;;;;;;;5077786;28;20196;-79
2022/06/19 06:38:34;;;;;;;12.73;4.32;;;;;;;;;;5061753;28;20200;-80
2022/06/19 06:41:04;;;;;;;13.27;4.10;;;;;;;;;;5079409;28;20280;-78
2022/06/19 06:43:32;;;;;;;12.55;4.15;;;;;;;;;;5079801;28;20777;-77
2022/06/19 06:46:10;;;;;;;9.35;3.88;;;;;;;;;;5085697;28;20245;-77
2022/06/19 06:48:37;;;;;;;11.98;4.70;;;;;;;;;;5072483;28;20200;-78
2022/06/19 06:51:15;;;;;;;9.93;4.05;;;;;;;;;;5079251;28;20232;-78
2022/06/19 06:53:42;;;;;;;11.88;4.25;;;;;;;;;;5064726;28;20229;-78
2022/06/19 06:56:10;;;;;;;10.65;4.03;;;;;;;;;;5062295;28;20232;-78
2022/06/19 06:58:38;;;;;;;13.77;4.32;;;;;;;;;;5078482;28;20200;-78
2022/06/19 07:01:10;;;;;;;8.13;4.00;;;;;;;;;;5083091;28;20201;-79
2022/06/19 07:03:38;;;;;;;11.38;4.65;;;;;;;;;;5076579;28;20253;-79
2022/06/19 07:06:06;;;;;;;11.55;4.13;;;;;;;;;;5076869;28;20206;-80
2022/06/19 07:08:33;;;;;;;10.25;4.10;;;;;;;;;;5079611;28;20235;-77
2022/06/19 07:11:00;;;;;;;15.60;4.60;;;;;;;;;;5078423;28;20282;-78
2022/06/19 07:13:28;;;;;;;14.80;4.38;;;;;;;;;;5082077;28;20289;-78
2022/06/19 07:15:55;;;;;;;15.35;4.47;;;;;;;;;;5080964;28;20256;-78
2022/06/19 07:18:23;;;;;;;8.27;4.10;;;;;;;;;;5084617;28;20288;-79
2022/06/19 07:20:50;;;;;;;11.05;4.30;;;;;;;;;;5079906;28;20637;-79
2022/06/19 07:23:17;;;;;;;14.07;5.38;;;;;;;;;;5076334;28;20225;-77
2022/06/19 07:25:44;;;;;;;11.52;5.45;;;;;;;;;;5081388;28;20211;-79
2022/06/19 07:28:15;;;;;;;16.10;5.57;;;;;;;;;;5075368;28;20307;-78
2022/06/19 07:30:45;;;;;;;8.93;4.35;;;;;;;;;;5064208;28;20772;-79
2022/06/19 07:33:12;;;;;;;13.70;5.10;;;;;;;;;;5081334;28;20236;-78
2022/06/19 07:35:40;;;;;;;11.82;5.03;;;;;;;;;;5083932;28;20216;-79
2022/06/19 07:38:07;;;;;;;12.30;5.40;;;;;;;;;;5080890;28;20228;-78
2022/06/19 07:40:36;;;;;;;15.23;5.38;;;;;;;;;;5081268;28;20205;-79
2022/06/19 07:43:06;;;;;;;13.07;5.07;;;;;;;;;;5079493;28;20217;-78
2022/06/19 07:45:33;;;;;;;13.77;5.55;;;;;;;;;;5081602;28;20289;-78
2022/06/19 07:50:48;;;;;;;13.20;5.03;;;;;;;;;;5082503;28;20212;-78
2022/06/19 07:53:15;;;;;;;14.30;4.78;;;;;;;;;;5077697;28;20306;-78
2022/06/19 07:55:42;;;;;;;14.30;4.72;;;;;;;;;;5079055;28;20272;-78
2022/06/19 07:58:09;;;;;;;13.27;4.32;;;;;;;;;;5082783;28;20235;-78
2022/06/19 08:00:37;;;;;;;13.20;4.72;;;;;;;;;;5078915;28;20336;-79
2022/06/19 08:03:07;;;;;;;10.55;4.65;;;;;;;;;;5081971;28;20221;-80
2022/06/19 08:05:35;;;;;;;11.95;4.40;;;;;;;;;;5080462;28;20208;-80
2022/06/19 08:08:05;;;;;;;14.23;4.43;;;;;;;;;;5083489;28;20277;-77
2022/06/19 08:10:34;;;;;;;13.23;4.85;;;;;;;;;;5082910;28;20239;-78
2022/06/19 08:13:04;;;;;;;10.63;4.38;;;;;;;;;;5069662;28;20905;-77
2022/06/19 08:15:32;;;;;;;12.00;4.80;;;;;;;;;;5076941;28;20220;-78
2022/06/19 08:17:59;;;;;;;11.40;4.88;;;;;;;;;;5083387;28;20203;-77
2022/06/19 08:20:27;;;;;;;11.85;4.97;;;;;;;;;;5076581;28;20248;-78
2022/06/19 08:22:54;;;;;;;13.75;5.05;;;;;;;;;;5075381;28;20251;-78
2022/06/19 08:25:23;;;;;;;13.82;5.43;;;;;;;;;;5079222;28;20321;-79
2022/06/19 08:27:51;;;;;;;14.10;4.93;;;;;;;;;;5063886;28;20300;-79
2022/06/19 08:30:21;;;;;;;9.60;5.07;;;;;;;;;;5053318;28;20395;-77
2022/06/19 08:32:48;;;;;;;11.95;5.53;;;;;;;;;;5064288;28;20363;-77
2022/06/19 08:35:16;;;;;;;11.27;5.53;;;;;;;;;;5060516;28;20337;-79
2022/06/19 08:37:47;;;;;;;13.80;5.93;;;;;;;;;;5054841;28;20311;-76
2022/06/19 08:40:14;;;;;;;10.73;5.30;;;;;;;;;;5060749;28;20209;-78
2022/06/19 08:43:02;;;;;;;11.45;5.05;;;;;;;;;;5036892;28;20221;-77
2022/06/19 08:45:55;;;;;;;13.93;5.40;;;;;;;;;;5071665;28;20250;-77
2022/06/19 08:48:28;;;;;;;14.07;5.57;;;;;;;;;;5030726;28;20643;-79
2022/06/19 08:51:03;;;;;;;8.10;5.03;;;;;;;;;;5061749;28;20636;-76
2022/06/19 08:53:40;;;;;;;10.05;4.82;;;;;;;;;;5057354;28;20228;-77
2022/06/19 08:56:13;;;;;;;10.52;5.35;;;;;;;;;;5060805;28;20366;-77
2022/06/19 08:58:44;;;;;;;13.43;5.50;;;;;;;;;;5067163;28;20327;-78
2022/06/19 09:01:11;;;;;;;10.15;5.10;;;;;;;;;;5058708;28;20201;-77
2022/06/19 09:06:54;;;;;;;10.18;5.40;;;;;;;;;;5069980;28;20668;-79
2022/06/19 09:09:33;;;;;;;9.50;5.18;;;;;;;;;;5068415;28;20334;-80
2022/06/19 09:12:19;;;;;;;13.20;5.57;;;;;;;;;;5063692;28;20224;-78
2022/06/19 09:15:02;;;;;;;17.02;5.80;;;;;;;;;;5074768;28;20232;-77
2022/06/19 09:17:30;;;;;;;10.55;5.10;;;;;;;;;;5078918;28;20246;-77
2022/06/19 09:20:00;;;;;;;11.05;5.80;;;;;;;;;;5063285;28;20240;-77
2022/06/19 09:22:48;;;;;;;13.98;5.70;;;;;;;;;;5062308;28;21121;-77
2022/06/19 09:25:18;;;;;;;15.18;5.72;;;;;;;;;;5057428;28;20200;-77
2022/06/19 09:27:51;;;;;;;12.98;5.97;;;;;;;;;;5048645;28;20279;-79
2022/06/19 09:30:21;;;;;;;10.82;5.72;;;;;;;;;;5068925;28;20283;-79
2022/06/19 09:33:09;;;;;;;10.25;5.13;;;;;;;;;;5051667;28;20229;-79
2022/06/19 09:35:41;;;;;;;12.30;5.57;;;;;;;;;;5060750;28;20498;-79
2022/06/19 09:38:16;;;;;;;14.73;5.88;;;;;;;;;;5056987;28;20278;-76
2022/06/19 09:40:49;;;;;;;10.13;5.20;;;;;;;;;;5051111;28;20214;-76
2022/06/19 09:43:23;;;;;;;11.68;5.32;;;;;;;;;;5060114;28;20284;-77
2022/06/19 09:45:50;;;;;;;13.30;5.63;;;;;;;;;;5044745;28;20585;-81
2022/06/19 09:48:27;;;;;;;15.73;5.97;;;;;;;;;;5065385;28;20211;-79
2022/06/19 09:51:00;;;;;;;10.77;5.65;;;;;;;;;;5059696;28;20250;-79
2022/06/19 09:53:44;;;;;;;12.80;6.00;;;;;;;;;;5051650;28;20307;-79
2022/06/19 09:56:37;;;;;;;14.98;5.80;;;;;;;;;;5079672;28;20212;-78
2022/06/19 09:59:23;;;;;;;10.50;5.55;;;;;;;;;;5069207;28;20288;-78
2022/06/19 10:01:56;;;;;;;10.55;5.90;;;;;;;;;;5072413;28;20666;-76
2022/06/19 10:04:23;;;;;;;;;;;;;;;;;;5075406;28;20119;-79
2022/06/19 10:06:51;;;;;;;;;;;;;;;;;;5073437;28;20007;-78
2022/06/19 10:09:18;;;;;;;;;;;;;;;;;;5079846;28;20019;-79
2022/06/19 10:11:45;;;;;;;;;;;;;;;;;;5073756;28;19942;-76
2022/06/19 10:14:12;;;;;;;;;;;;;;;;;;5077037;28;20345;-76
2022/06/19 10:16:45;;;;;;;;;;;;;;;;;;5075762;28;20018;-79
2022/06/19 10:19:13;;;;;;;;;;;;;;;;;;5069150;28;20327;-77
2022/06/19 10:24:25;;;;;;;;;;;;;;;;;;5076287;28;20005;-78
2022/06/19 10:26:53;;;;;;;;;;;;;;;;;;5072066;28;19971;-77
2022/06/19 10:29:20;;;;;;;;;;;;;;;;;;5074201;28;19959;-79
2022/06/19 10:31:47;;;;;;;;;;;;;;;;;;5058671;28;19920;-78
2022/06/19 10:34:14;;;;;;;;;;;;;;;;;;5077673;28;19957;-79
2022/06/19 10:36:41;;;;;;;;;;;;;;;;;;5052958;28;19986;-79
2022/06/19 10:39:14;;;;;;;;;;;;;;;;;;5080729;28;20046;-76
2022/06/19 10:44:27;;;;;;;;;;;;;;;;;;5078403;28;19978;-79
2022/06/19 10:46:54;;;;;;;;;;;;;;;;;;5084771;28;19973;-79
2022/06/19 10:49:22;;;;;;;;;;;;;;;;;;5061848;28;20437;-78
2022/06/19 10:51:49;;;;;;;;;;;;;;;;;;5082315;28;19963;-78
2022/06/19 10:54:16;;;;;;;;;;;;;;;;;;5077784;28;19924;-80
2022/06/19 10:56:48;;;;;;;13.95;7.20;;;;;;;;;;5076565;28;19960;-78
2022/06/19 10:59:16;;;;;;;10.82;6.50;;;;;;;;;;5074349;28;20259;-81
2022/06/19 11:04:38;;;;;;;13.68;6.88;;;;;;;;;;5064703;28;20203;-79
2022/06/19 11:07:08;;;;;;;13.77;6.82;;;;;;;;;;5054861;28;20205;-81
2022/06/19 11:09:37;;;;;;;12.82;6.18;;;;;;;;;;5054699;28;21451;-81
2022/06/19 11:12:06;;;;;;;13.17;6.67;;;;;;;;;;5080958;28;20311;-80
2022/06/19 11:14:36;;;;;;;13.00;7.40;;;;;;;;;;5067266;28;20301;-77
2022/06/19 11:17:09;;;;;;;19.17;9.48;;;;;;;;;;5081025;28;20228;-80
2022/06/19 11:19:46;;;;;;;19.95;13.25;;;;;;;;;;5077926;28;20276;-79
2022/06/19 11:22:20;;;;;;;17.40;10.50;;;;;;;;;;5072769;28;20695;-80
2022/06/19 11:24:47;;;;;;;17.40;8.43;;;;;;;;;;5068398;28;20287;-80
2022/06/19 11:27:17;;;;;;;19.92;9.45;;;;;;;;;;5054526;28;20338;-80
2022/06/19 11:29:47;;;;;;;12.57;8.55;;;;;;;;;;5076610;28;20235;-77
2022/06/19 11:32:16;;;;;;;13.80;8.65;;;;;;;;;;5077412;28;20311;-79
2022/06/19 11:34:46;;;;;;;11.27;6.93;;;;;;;;;;5079158;28;20552;-78
2022/06/19 11:37:24;;;;;;;15.07;8.25;;;;;;;;;;5070050;28;20351;-79
2022/06/19 11:40:00;;;;;;;15.57;7.63;;;;;;;;;;5074122;28;20283;-80
2022/06/19 11:42:30;;;;;;;11.90;7.25;;;;;;;;;;5076255;28;20290;-80
2022/06/19 11:45:27;;;;;;;13.93;7.20;;;;;;;;;;5076225;28;20649;-78
2022/06/19 11:47:54;;;;;;;11.73;7.50;;;;;;;;;;5053287;28;20292;-80
2022/06/19 11:50:24;;;;;;;12.73;7.15;;;;;;;;;;5077937;28;21479;-78
2022/06/19 11:52:59;;;;;;;13.25;7.40;;;;;;;;;;5082647;28;20259;-79
2022/06/19 11:55:28;;;;;;;10.60;7.05;;;;;;;;;;5080072;28;20239;-83
2022/06/19 11:57:58;;;;;;;15.52;6.82;;;;;;;;;;5077841;28;20262;-83
2022/06/19 12:00:28;;;;;;;11.85;6.80;;;;;;;;;;5073239;28;20359;-79
2022/06/19 12:02:57;;;;;;;14.98;7.13;;;;;;;;;;5048852;28;20241;-78
2022/06/19 12:05:27;;;;;;;14.95;7.22;;;;;;;;;;5074258;28;20229;-79
2022/06/19 12:07:56;;;;;;;14.80;7.00;;;;;;;;;;5055530;28;20212;-80
2022/06/19 12:10:25;;;;;;;11.50;6.78;;;;;;;;;;5073600;28;20296;-76
2022/06/19 12:12:54;;;;;;;14.68;7.32;;;;;;;;;;5071866;28;20323;-76
2022/06/19 12:15:24;;;;;;;13.77;7.15;;;;;;;;;;5056726;28;20209;-79
2022/06/19 12:17:59;;;;;;;12.75;7.05;;;;;;;;;;5055401;28;20568;-79
2022/06/19 12:20:29;;;;;;;10.23;6.47;;;;;;;;;;5076513;28;20221;-78
2022/06/19 12:23:08;;;;;;;10.30;6.75;;;;;;;;;;5077070;28;20231;-78
2022/06/19 12:25:41;;;;;;;10.93;6.28;;;;;;;;;;5074501;28;20208;-77
2022/06/19 12:28:19;;;;;;;11.13;6.70;;;;;;;;;;5057078;28;20638;-80
2022/06/19 12:30:53;;;;;;;14.70;8.60;;;;;;;;;;5081065;28;20225;-79
2022/06/19 12:33:29;;;;;;;16.52;9.40;;;;;;;;;;5066793;28;20743;-79
2022/06/19 12:35:56;;;;;;;13.93;8.57;;;;;;;;;;5065105;28;21215;-79
2022/06/19 12:38:24;;;;;;;11.20;7.63;;;;;;;;;;5066369;28;20233;-77
2022/06/19 12:41:11;;;;;;;11.88;7.55;;;;;;;;;;5070718;28;20204;-75
2022/06/19 12:43:57;;;;;;;13.52;7.40;;;;;;;;;;5071132;28;20234;-81
2022/06/19 12:46:43;;;;;;;12.77;7.47;;;;;;;;;;5073070;28;20250;-80
2022/06/19 12:49:14;;;;;;;13.63;7.68;;;;;;;;;;5070142;28;20262;-81
2022/06/19 12:51:41;;;;;;;14.90;7.22;;;;;;;;;;5073872;28;20688;-77
2022/06/19 12:54:08;;;;;;;10.77;7.20;;;;;;;;;;5060846;28;20249;-77
2022/06/19 12:57:00;;;;;;;13.40;7.57;;;;;;;;;;5048350;28;21650;-79
2022/06/19 12:59:42;;;;;;;14.60;8.35;;;;;;;;;;5055390;28;20300;-78
2022/06/19 13:02:23;;;;;;;13.57;7.40;;;;;;;;;;5054245;28;20236;-76
2022/06/19 13:05:09;;;;;;;11.85;7.35;;;;;;;;;;5054991;28;20334;-77
2022/06/19 13:07:45;;;;;;;14.23;8.57;;;;;;;;;;5068885;28;20201;-80
2022/06/19 13:10:31;;;;;;;14.25;7.10;;;;;;;;;;5049429;28;20301;-78
2022/06/19 13:13:18;;;;;;;17.38;8.57;;;;;;;;;;5068961;28;20742;-81
2022/06/19 13:15:48;;;;;;;15.48;6.75;;;;;;;;;;5027126;28;20359;-77
2022/06/19 13:18:25;;;;;;;13.98;6.68;;;;;;;;;;5057218;28;20270;-79
2022/06/19 13:21:05;;;;;;;12.85;6.75;;;;;;;;;;5065135;28;20208;-78
2022/06/19 13:23:55;;;;;;;11.07;5.93;;;;;;;;;;5052921;28;20361;-79
2022/06/19 13:29:48;;;;;;;10.13;6.07;;;;;;;;;;5059930;28;20298;-79
2022/06/19 13:32:18;;;;;;;15.65;6.28;;;;;;;;;;5059207;28;20267;-78
2022/06/19 13:34:58;;;;;;;11.30;6.60;;;;;;;;;;5067104;28;20299;-79
2022/06/19 13:37:44;;;;;;;14.65;7.00;;;;;;;;;;5061855;28;20220;-79
2022/06/19 13:40:12;;;;;;;13.32;5.88;;;;;;;;;;5076611;28;20192;-79
2022/06/19 13:42:39;;;;;;;11.25;6.13;;;;;;;;;;5075288;28;20255;-77
2022/06/19 13:45:45;;;;;;;12.32;6.30;;;;;;;;;;5066438;28;20568;-79
2022/06/19 13:48:22;;;;;;;15.57;6.78;;;;;;;;;;4966828;28;20211;-78
2022/06/19 13:50:52;;;;;;;14.15;6.43;;;;;;;;;;4976222;28;20310;-76
2022/06/19 13:53:42;;;;;;;15.48;6.07;;;;;;;;;;5021473;28;20451;-79
2022/06/19 13:56:12;;;;;;;13.90;5.95;;;;;;;;;;5076717;28;20354;-77
2022/06/19 13:58:58;;;;;;;17.63;6.03;;;;;;;;;;5078086;28;20221;-78
2022/06/19 14:01:30;;;;;;;15.32;6.00;;;;;;;;;;5068597;28;20299;-81
2022/06/19 14:07:06;;;;;;;16.90;5.85;;;;;;;;;;5062865;28;20698;-78
2022/06/19 14:09:49;;;;;;;14.23;5.55;;;;;;;;;;5068279;28;20297;-80
2022/06/19 14:12:18;;;;;;;10.05;5.70;;;;;;;;;;5066994;28;20277;-78
2022/06/19 14:14:47;;;;;;;13.52;6.22;;;;;;;;;;5071872;28;20240;-81
2022/06/19 14:17:20;;;;;;;11.32;5.68;;;;;;;;;;5058807;28;20307;-78
2022/06/19 14:20:06;;;;;;;14.68;6.78;;;;;;;;;;5072909;28;20200;-80
2022/06/19 14:22:37;;;;;;;15.82;6.70;;;;;;;;;;5070942;28;20731;-81
2022/06/19 14:25:10;;;;;;;8.38;5.65;;;;;;;;;;5082282;28;20275;-78
2022/06/19 14:27:45;;;;;;;12.63;6.13;;;;;;;;;;5077188;28;20656;-79
2022/06/19 14:30:20;;;;;;;9.48;6.03;;;;;;;;;;5078504;28;20208;-80
2022/06/19 14:32:55;;;;;;;11.38;5.80;;;;;;;;;;5082339;28;20251;-79
2022/06/19 14:35:28;;;;;;;12.13;5.70;;;;;;;;;;5075799;28;20208;-79
2022/06/19 14:37:56;;;;;;;15.55;6.10;;;;;;;;;;5078799;28;20324;-77
2022/06/19 14:40:24;;;;;;;12.00;6.20;;;;;;;;;;5073243;28;20201;-77
2022/06/19 14:42:58;;;;;;;15.98;6.35;;;;;;;;;;5064943;28;20247;-80
2022/06/19 14:45:26;;;;;;;16.48;6.50;;;;;;;;;;5044392;28;20212;-79
2022/06/19 14:48:13;;;;;;;13.63;5.80;;;;;;;;;;5064276;28;20228;-78
2022/06/19 14:50:44;;;;;;;16.38;6.45;;;;;;;;;;5069873;28;20323;-77
2022/06/19 14:53:29;;;;;;;13.13;5.63;;;;;;;;;;5069355;28;20247;-77
2022/06/19 14:55:56;;;;;;;11.48;6.00;;;;;;;;;;5065517;28;20300;-76
2022/06/19 14:58:29;;;;;;;11.02;5.60;;;;;;;;;;5076416;28;20207;-79
2022/06/19 15:01:00;;;;;;;13.30;5.53;;;;;;;;;;5046518;28;20205;-77
2022/06/19 15:03:46;;;;;;;12.55;5.60;;;;;;;;;;5065301;28;20228;-79
2022/06/19 15:06:18;;;;;;;13.75;6.13;;;;;;;;;;5068642;28;20282;-78
2022/06/19 15:09:06;;;;;;;12.00;6.03;;;;;;;;;;5071490;28;20208;-79
2022/06/19 15:11:35;;;;;;;14.13;7.57;;;;;;;;;;5079230;28;20227;-78
2022/06/19 15:14:22;;;;;;;14.32;6.30;;;;;;;;;;5066256;28;20291;-79
2022/06/19 15:16:54;;;;;;;17.42;6.30;;;;;;;;;;5075212;28;20232;-79
2022/06/19 15:19:51;;;;;;;13.35;5.50;;;;;;;;;;5080031;28;20209;-77
2022/06/19 15:22:24;;;;;;;10.75;5.65;;;;;;;;;;5048134;28;20323;-79
2022/06/19 15:24:52;;;;;;;15.55;6.22;;;;;;;;;;5061771;28;20205;-79
2022/06/19 15:27:25;;;;;;;18.75;6.88;;;;;;;;;;5058707;28;20212;-79
2022/06/19 15:29:58;;;;;;;15.02;6.57;;;;;;;;;;5068384;28;20929;-76